createdAt,value
2023-01-11T12:08:51.606Z,11.17
2023-01-11T12:11:41.419Z,11.27
2023-01-11T12:14:12.490Z,11.31
2023-01-11T12:16:42.368Z,11.44
2023-01-11T12:19:31.322Z,11.35
2023-01-11T12:22:23.075Z,11.38
2023-01-11T12:25:16.934Z,11.42
2023-01-11T12:28:18.655Z,11.50
2023-01-11T12:31:05.705Z,11.47
2023-01-11T12:34:31.607Z,11.51
2023-01-11T12:37:21.272Z,11.45
2023-01-11T12:40:13.965Z,11.49
2023-01-11T12:43:05.527Z,11.54
2023-01-11T12:46:11.517Z,11.52
2023-01-11T12:48:46.387Z,11.57
2023-01-11T12:51:51.618Z,11.48
2023-01-11T12:54:26.169Z,11.43
2023-01-11T12:57:22.304Z,11.33
2023-01-11T13:00:39.310Z,11.46
2023-01-11T13:03:35.095Z,11.43
2023-01-11T13:06:18.827Z,11.46
2023-01-11T13:08:59.192Z,11.50
2023-01-11T13:11:44.385Z,11.46
2023-01-11T13:14:16.804Z,11.53
2023-01-11T13:17:10.507Z,11.48
2023-01-11T13:19:51.783Z,11.70
2023-01-11T13:22:20.469Z,11.78
2023-01-11T13:24:49.137Z,11.77
2023-01-11T13:27:22.898Z,11.91
2023-01-11T13:29:57.082Z,12.01
2023-01-11T13:32:31.010Z,12.07
2023-01-11T13:35:17.613Z,11.92
2023-01-11T13:38:14.350Z,11.89
2023-01-11T13:40:53.573Z,11.77
2023-01-11T13:43:40.003Z,11.72
2023-01-11T13:46:32.799Z,11.79
2023-01-11T13:49:18.891Z,11.99
2023-01-11T13:52:05.249Z,12.08
2023-01-11T13:54:41.316Z,12.15
2023-01-11T13:57:14.414Z,11.97
2023-01-11T13:59:46.618Z,11.76
2023-01-11T14:02:41.660Z,11.78
2023-01-11T14:05:18.810Z,11.76
2023-01-11T14:08:38.190Z,11.90
2023-01-11T14:11:26.747Z,11.80
2023-01-11T14:14:18.515Z,11.97
2023-01-11T14:16:47.834Z,11.81
2023-01-11T14:19:49.950Z,11.91
2023-01-11T14:22:43.741Z,11.89
2023-01-11T14:25:17.868Z,11.82
2023-01-11T14:28:24.008Z,11.84
2023-01-11T14:31:08.954Z,11.92
2023-01-11T14:33:54.364Z,11.81
2023-01-11T14:36:47.008Z,11.80
2023-01-11T14:39:54.555Z,11.88
2023-01-11T14:42:48.039Z,11.90
2023-01-11T14:45:25.789Z,11.87
2023-01-11T14:48:18.439Z,11.94
2023-01-11T14:51:06.466Z,12.04
2023-01-11T14:53:38.667Z,12.08
2023-01-11T14:56:53.548Z,11.97
2023-01-11T14:59:27.866Z,11.84
2023-01-11T15:02:05.649Z,11.91
2023-01-11T15:05:00.633Z,11.93
2023-01-11T15:07:34.272Z,11.86
